Latest Weather Observations for Carnarvon

IDW60801

Issued at 1:23 pm WST Tuesday 29 September 2020 (issued every 10 minutes, with the page automatically refreshed every 10 minutes)

About weather observations | Map of weather stations | Latest weather observations for WA | Other Formats
Station Details ID: 006011 Name: CARNARVON AIRPORT Lat: -24.89 Lon: 113.67 Height: 4.0 m
Data from the previous 72 hours. | See also: Recent months at Carnarvon
Date/Time
WST
Temp
°C
App
Temp
°C
Dew
Point
°C
Rel
Hum
%
Delta-T
°C
Wind Press
QNH
hPa
Press
MSL
hPa
Rain since
9am
mm
Dir  Spd
km/h
Gust
km/h
Spd
kts
Gust
kts
29/01:00pm 23.3 17.8 14.6 58 5.1 SSW 37 46 20 25 1018.3 1018.3 0.0
29/12:30pm 22.8 16.9 14.6 60 4.8 SSW 39 50 21 27 1018.5 1018.5 0.0
29/12:00pm 22.5 17.2 15.4 64 4.2 SSW 37 44 20 24 1018.9 1018.9 0.0
29/11:30am 22.4 16.9 14.8 62 4.5 SSW 37 48 20 26 1019.2 1019.2 0.0
29/11:00am 23.8 19.6 13.4 52 6.0 S 28 37 15 20 1019.5 1019.5 0.0
29/10:30am 24.0 18.5 9.2 39 8.0 SSE 28 41 15 22 1019.6 1019.6 0.0
29/10:00am 22.9 17.7 10.3 45 6.9 SE 28 35 15 19 1020.0 1020.0 0.0
29/09:30am 22.2 17.1 10.7 48 6.3 SSE 28 39 15 21 1020.4 1020.4 0.0
29/09:00am 21.0 16.3 11.9 56 5.1 SE 28 39 15 21 1020.7 1020.7 0.0
29/08:30am 20.1 15.3 12.8 63 4.1 SSE 30 37 16 20 1020.8 1020.8 0.0
29/08:00am 18.9 13.9 13.5 71 3.1 SE 32 41 17 22 1020.6 1020.6 0.0
29/07:30am 17.8 13.6 13.5 76 2.4 SE 28 39 15 21 1020.2 1020.2 0.0
29/07:00am 16.9 13.7 13.2 79 2.1 SE 22 28 12 15 1019.9 1019.9 0.0
29/06:30am 16.1 13.3 13.2 83 1.6 SE 20 26 11 14 1019.4 1019.4 0.0
29/06:00am 15.9 13.3 13.7 87 1.2 SE 20 26 11 14 1019.3 1019.3 0.0
29/05:30am 15.9 13.5 13.7 87 1.2 SSE 19 24 10 13 1019.0 1019.0 0.0
29/05:00am 16.1 13.7 13.9 87 1.2 SE 19 24 10 13 1018.6 1018.6 0.0
29/04:30am 16.3 14.4 14.3 88 1.1 SSE 17 22 9 12 1018.4 1018.4 0.0
29/04:00am 16.4 15.0 14.6 89 1.0 SSE 15 17 8 9 1018.4 1018.4 0.0
29/03:30am 17.3 15.6 14.6 84 1.6 SSE 17 20 9 11 1018.3 1018.3 0.0
29/03:00am 17.8 15.9 15.2 85 1.5 S 19 24 10 13 1018.3 1018.3 0.0
29/02:30am 17.8 15.9 15.1 84 1.6 S 19 22 10 12 1018.4 1018.4 0.0
29/02:00am 18.0 15.8 14.5 80 2.0 S 19 24 10 13 1018.4 1018.4 0.0
29/01:30am 18.4 14.9 14.5 78 2.3 S 26 37 14 20 1018.7 1018.7 0.0
29/01:00am 18.5 16.7 15.9 85 1.5 S 20 28 11 15 1018.8 1018.8 0.0
29/12:30am 18.8 16.4 16.4 86 1.4 S 24 32 13 17 1018.9 1018.9 0.0
29/12:00am 18.9 15.4 15.6 81 1.9 S 28 39 15 21 1019.2 1019.2 0.0
 
Date/Time
WST
Temp
°C
App
Temp
°C
Dew
Point
°C
Rel
Hum
%
Delta-T
°C
Wind Press
QNH
hPa
Press
MSL
hPa
Rain since
9am
mm
Dir  Spd
km/h
Gust
km/h
Spd
kts
Gust
kts
28/11:30pm 19.1 14.7 15.2 78 2.3 S 32 39 17 21 1019.1 1019.1 0.0
28/11:00pm 19.3 14.7 15.2 77 2.4 S 33 44 18 24 1019.3 1019.3 0.0
28/10:30pm 19.4 14.9 15.3 77 2.4 S 33 43 18 23 1019.4 1019.4 0.0
28/10:00pm 19.6 14.7 15.3 76 2.5 S 35 44 19 24 1019.5 1019.5 0.0
28/09:30pm 19.9 14.5 14.9 73 2.9 S 37 48 20 26 1019.4 1019.4 0.0
28/09:00pm 20.1 15.6 15.5 75 2.7 S 33 46 18 25 1019.3 1019.3 0.0
28/08:30pm 20.4 14.8 15.4 73 3.0 SSW 39 54 21 29 1019.1 1019.1 0.0
28/08:00pm 20.6 15.3 15.2 71 3.2 SSW 37 50 20 27 1018.7 1018.7 0.0
28/07:30pm 20.6 15.7 16.4 77 2.5 SSW 37 48 20 26 1018.5 1018.5 0.0
28/07:00pm 20.7 15.3 15.9 74 2.9 SSW 39 50 21 27 1017.9 1017.9 0.0
28/06:30pm 20.9 16.2 15.9 73 3.0 SSW 35 48 19 26 1017.5 1017.5 0.0
28/06:00pm 21.3 16.4 15.2 68 3.6 SSW 35 44 19 24 1017.3 1017.3 0.0
28/05:30pm 21.5 17.8 14.9 66 3.9 SW 28 35 15 19 1017.2 1017.2 0.0
28/05:00pm 22.1 18.4 14.0 60 4.7 SW 26 32 14 17 1017.3 1017.3 0.0
28/04:30pm 22.2 17.8 14.1 60 4.7 SW 30 39 16 21 1017.3 1017.3 0.0
28/04:00pm 22.8 18.4 14.1 58 5.1 SSW 30 37 16 20 1017.2 1017.2 0.0
28/03:30pm 22.2 17.8 14.1 60 4.7 SSW 30 37 16 20 1017.3 1017.3 0.0
28/03:00pm 22.9 19.5 14.7 60 4.8 SSW 26 33 14 18 1017.5 1017.5 0.0
28/02:30pm 22.5 18.4 13.8 58 5.1 SSW 28 35 15 19 1017.7 1017.7 0.0
28/02:00pm 22.7 18.7 14.0 58 5.1 SSW 28 35 15 19 1017.8 1017.8 0.0
28/01:30pm 22.6 18.5 13.9 58 5.1 SW 28 35 15 19 1018.0 1018.0 0.0
28/01:00pm 22.6 19.2 14.7 61 4.7 SW 26 32 14 17 1018.3 1018.3 0.0
28/12:30pm 22.8 19.5 15.1 62 4.6 SW 26 33 14 18 1018.5 1018.5 0.0
28/12:00pm 22.2 18.5 13.8 59 4.9 SSW 26 32 14 17 1018.9 1018.9 0.0
28/11:30am 22.6 19.8 14.4 60 4.8 SSW 22 28 12 15 1019.2 1019.2 0.0
28/11:00am 22.3 19.3 14.7 62 4.5 SSW 24 32 13 17 1019.5 1019.5 0.0
28/10:30am 22.5 18.5 14.1 59 4.9 SSW 28 33 15 18 1019.9 1019.9 0.0
28/10:00am 22.2 17.8 13.0 56 5.3 SSW 28 33 15 18 1019.9 1019.9 0.0
28/09:30am 22.1 18.8 14.0 60 4.7 S 24 32 13 17 1019.7 1019.7 0.0
28/09:00am 21.5 17.9 12.9 58 4.9 S 24 33 13 18 1019.6 1019.6 0.0
28/08:30am 20.9 17.2 12.8 60 4.6 S 24 33 13 18 1019.5 1019.5 0.0
28/08:00am 21.2 17.6 14.1 64 4.1 S 26 33 14 18 1019.3 1019.3 0.0
28/07:30am 20.4 18.1 14.7 70 3.3 S 20 26 11 14 1019.1 1019.1 0.0
28/07:00am 19.2 17.2 14.9 76 2.5 S 19 26 10 14 1018.7 1018.7 0.0
28/06:30am 18.3 16.2 15.2 82 1.8 S 20 26 11 14 1018.8 1018.8 0.0
28/06:00am 17.9 16.3 15.0 83 1.7 S 17 20 9 11 1018.6 1018.6 0.0
28/05:30am 18.0 16.1 15.3 84 1.6 S 19 22 10 12 1018.1 1018.1 0.0
28/05:00am 18.2 16.3 15.1 82 1.8 S 19 24 10 13 1017.6 1017.6 0.0
28/04:30am 18.1 16.0 14.6 80 2.0 S 19 24 10 13 1017.2 1017.2 0.0
28/04:00am 18.2 15.9 14.1 77 2.3 S 19 24 10 13 1017.1 1017.1 0.0
28/03:30am 18.7 15.8 14.0 74 2.7 S 22 30 12 16 1016.7 1016.7 0.0
28/03:00am 19.2 15.5 13.8 71 3.1 SSW 26 35 14 19 1016.7 1016.7 0.0
28/02:30am 19.3 16.1 14.3 73 2.9 SSW 24 33 13 18 1016.8 1016.8 0.0
28/02:00am 19.3 16.1 14.3 73 2.9 SSW 24 33 13 18 1017.0 1017.0 0.0
28/01:30am 19.2 15.9 14.0 72 3.0 S 24 33 13 18 1016.8 1016.8 0.0
28/01:00am 19.5 15.0 13.9 70 3.2 SSW 30 37 16 20 1016.9 1016.9 0.0
28/12:30am 19.7 15.2 13.9 69 3.3 S 30 35 16 19 1016.8 1016.8 0.0
28/12:00am 19.7 15.1 13.6 68 3.5 SSW 30 39 16 21 1017.1 1017.1 0.0
 
Date/Time
WST
Temp
°C
App
Temp
°C
Dew
Point
°C
Rel
Hum
%
Delta-T
°C
Wind Press
QNH
hPa
Press
MSL
hPa
Rain since
9am
mm
Dir  Spd
km/h
Gust
km/h
Spd
kts
Gust
kts
27/11:30pm 20.0 15.0 13.5 66 3.7 SSW 32 39 17 21 1017.5 1017.5 0.0
27/11:00pm 19.9 15.6 13.1 65 3.9 SSW 28 35 15 19 1017.4 1017.4 0.0
27/10:30pm 20.0 15.3 13.2 65 3.9 SSW 30 37 16 20 1018.2 1018.2 0.0
27/10:00pm 20.1 14.8 12.6 62 4.2 SW 32 43 17 23 1018.5 1018.5 0.0
27/09:30pm 20.2 14.8 12.9 63 4.1 SW 33 43 18 23 1018.2 1018.2 0.0
27/09:00pm 20.4 15.7 12.1 59 4.6 SSW 28 39 15 21 1017.8 1017.8 0.0
27/08:30pm 20.5 15.9 13.5 64 4.0 SW 30 41 16 22 1017.5 1017.5 0.0
27/08:00pm 20.7 15.7 13.4 63 4.2 SSW 32 41 17 22 1017.1 1017.1 0.0
27/07:30pm 20.7 16.3 14.1 66 3.8 SSW 30 39 16 21 1016.8 1016.8 0.0
27/07:00pm 20.5 17.6 15.1 71 3.2 SW 24 35 13 19 1016.6 1016.6 0.0
27/06:30pm 20.4 17.9 15.2 72 3.1 SW 22 30 12 16 1016.0 1016.0 0.0
27/06:00pm 20.9 18.0 15.0 69 3.5 SW 24 32 13 17 1015.8 1015.8 0.0
27/05:30pm 21.4 17.8 14.3 64 4.1 SW 26 33 14 18 1015.8 1015.8 0.0
27/05:00pm 22.1 18.4 14.0 60 4.7 SW 26 35 14 19 1016.0 1016.0 0.0
27/04:30pm 22.5 18.2 13.3 56 5.3 SW 28 35 15 19 1015.7 1015.7 0.0
27/04:00pm 22.7 18.0 13.2 55 5.5 SW 30 37 16 20 1015.6 1015.6 0.0
27/03:30pm 22.9 18.1 12.8 53 5.8 SW 30 37 16 20 1015.5 1015.5 0.0
27/03:00pm 23.3 18.7 12.3 50 6.3 SW 28 33 15 18 1015.3 1015.3 0.0
27/02:30pm 23.9 19.2 11.9 47 6.8 SW 28 37 15 20 1015.3 1015.3 0.0
27/02:00pm 24.3 20.0 11.9 45 7.0 SSW 26 32 14 17 1015.8 1015.8 0.0
27/01:30pm 23.6 18.8 11.6 47 6.8 SSW 28 33 15 18 1016.2 1016.2 0.0
27/01:00pm 23.2 18.0 11.6 48 6.5 SSW 30 35 16 19 1016.6 1016.6 0.0
27/12:30pm 23.8 18.2 11.5 46 6.9 SW 32 37 17 20 1017.1 1017.1 0.0
27/12:00pm 23.5 18.2 11.2 46 6.9 SW 30 35 16 19 1017.3 1017.3 0.0
27/11:30am 23.7 19.1 11.1 45 7.0 SSW 26 33 14 18 1017.6 1017.6 0.0
27/11:00am 23.6 19.3 10.6 44 7.2 SSW 24 32 13 17 1018.0 1018.0 0.0
27/10:30am 23.6 19.8 11.0 45 7.0 S 22 32 12 17 1018.2 1018.2 0.0
27/10:00am 23.2 19.8 11.3 47 6.6 SE 20 32 11 17 1018.3 1018.3 0.0
27/09:30am 21.8 18.4 11.2 51 5.9 SSE 20 30 11 16 1018.4 1018.4 0.0
27/09:00am 22.2 19.3 12.2 53 5.6 SE 19 28 10 15 1018.6 1018.6 0.0
27/08:30am 21.2 18.4 13.1 60 4.6 SE 20 26 11 14 1018.5 1018.5 0.0
27/08:00am 19.9 16.7 13.1 65 3.9 ESE 22 28 12 15 1018.2 1018.2 0.0
27/07:30am 18.6 16.2 13.7 73 2.8 ESE 19 24 10 13 1018.0 1018.0 0.0
27/07:00am 16.9 15.4 14.2 84 1.5 ESE 15 20 8 11 1017.6 1017.6 0.0
27/06:30am 15.1 13.7 14.5 96 0.3 ESE 15 17 8 9 1017.4 1017.4 0.0
27/06:00am 14.3 13.1 14.1 99 0.1 E 13 15 7 8 1017.1 1017.1 0.0
27/05:30am 14.4 13.3 14.2 99 0.1 ESE 13 15 7 8 1016.7 1016.7 0.0
27/05:00am 14.1 12.9 14.1 100 0.0 ESE 13 15 7 8 1016.4 1016.4 0.0
27/04:30am 13.3 12.1 12.8 97 0.3 ESE 11 13 6 7 1016.2 1016.2 0.0
27/04:00am 13.9 13.0 12.5 91 0.8 SE 9 13 5 7 1016.1 1016.1 0.0
27/03:30am 15.9 15.2 14.3 90 0.9 SSE 11 13 6 7 1016.1 1016.1 0.0
27/03:00am 17.4 16.3 15.4 88 1.2 S 15 19 8 10 1016.0 1016.0 0.0
27/02:30am 17.3 16.5 15.1 87 1.3 S 13 17 7 9 1015.9 1015.9 0.0
27/02:00am 17.4 16.5 14.9 85 1.4 S 13 17 7 9 1015.9 1015.9 0.0
27/01:30am 17.7 16.4 14.8 83 1.7 S 15 17 8 9 1015.8 1015.8 0.0
27/01:00am 18.1 17.0 15.4 84 1.6 S 15 20 8 11 1015.9 1015.9 0.0
27/12:30am 18.7 16.7 15.0 79 2.2 S 19 24 10 13 1016.1 1016.1 0.0
27/12:00am 19.1 16.6 15.2 78 2.3 S 22 28 12 15 1016.3 1016.3 0.0
 
Date/Time
WST
Temp
°C
App
Temp
°C
Dew
Point
°C
Rel
Hum
%
Delta-T
°C
Wind Press
QNH
hPa
Press
MSL
hPa
Rain since
9am
mm
Dir  Spd
km/h
Gust
km/h
Spd
kts
Gust
kts
26/11:30pm 19.3 17.1 14.8 75 2.6 SSW 20 26 11 14 1016.4 1016.4 0.0
26/11:00pm 19.2 17.1 14.7 75 2.6 S 19 24 10 13 1016.5 1016.5 0.0
26/10:30pm 19.3 17.0 14.1 72 3.0 S 19 24 10 13 1016.9 1016.9 0.0
26/10:00pm 19.8 16.7 14.4 71 3.1 S 24 32 13 17 1016.8 1016.8 0.0
26/09:30pm 20.1 16.4 13.8 67 3.6 SSW 26 33 14 18 1016.8 1016.8 0.0
26/09:00pm 20.2 16.2 12.9 63 4.1 SSW 26 32 14 17 1016.7 1016.7 0.0
26/08:30pm 20.2 17.4 14.3 69 3.4 SSW 22 30 12 16 1016.5 1016.5 0.0
26/08:00pm 20.3 18.0 14.2 68 3.5 SSW 19 26 10 14 1016.2 1016.2 0.0
26/07:30pm 20.3 18.2 14.7 70 3.3 SSW 19 24 10 13 1015.9 1015.9 0.0
26/07:00pm 20.4 18.5 14.1 67 3.6 SSW 17 26 9 14 1015.7 1015.7 0.0
26/06:30pm 20.5 18.3 14.4 68 3.6 SW 19 24 10 13 1015.2 1015.2 0.0
26/06:00pm 21.2 17.9 14.1 64 4.1 SW 24 28 13 15 1014.8 1014.8 0.0
26/05:30pm 21.8 18.7 13.4 59 4.8 SW 22 30 12 16 1014.6 1014.6 0.0
26/05:00pm 22.1 18.5 13.2 57 5.1 SW 24 30 13 16 1014.6 1014.6 0.0
26/04:30pm 22.6 18.9 12.8 54 5.6 SW 24 32 13 17 1014.6 1014.6 0.0
26/04:00pm 22.7 19.2 13.5 56 5.3 SW 24 28 13 15 1014.6 1014.6 0.0
26/03:30pm 23.2 19.4 12.5 51 6.1 SW 24 35 13 19 1014.5 1014.5 0.0
26/03:00pm 23.4 19.7 12.7 51 6.1 SW 24 33 13 18 1014.5 1014.5 0.0
26/02:30pm 24.2 20.4 12.5 48 6.7 SW 24 30 13 16 1014.8 1014.8 0.0
26/02:00pm 23.6 19.7 12.0 48 6.6 SW 24 30 13 16 1015.1 1015.1 0.0
26/01:30pm 22.5 19.0 12.2 52 5.8 SW 22 30 12 16 1015.4 1015.4 0.0

Other formats

Comma delimited format used in spreadsheet applications
http://www.bom.gov.au/fwo/IDW60801/IDW60801.94300.axf

JavaScript Object Notation format (JSON) in row-major order
http://www.bom.gov.au/fwo/IDW60801/IDW60801.94300.json

Data quality

Most of these data are generated automatically and are frequently updated. Quality checks on data are not normally performed. It is possible for incorrect values to appear. Refer to information at About Latest Weather Observations and please check the disclaimer before using these data.